sensor_id;sensor_type;location;lat;lon;timestamp;temperature;humidity
64012;DHT22;50211;52.768;12.124;2023-03-23T00:02:25;11.40;99.90
64012;DHT22;50211;52.768;12.124;2023-03-23T00:04:51;11.50;99.90
64012;DHT22;50211;52.768;12.124;2023-03-23T00:07:17;11.50;99.90
64012;DHT22;50211;52.768;12.124;2023-03-23T00:09:49;11.50;99.90
64012;DHT22;50211;52.768;12.124;2023-03-23T00:12:21;11.50;99.90
64012;DHT22;50211;52.768;12.124;2023-03-23T00:15:04;11.50;99.90
64012;DHT22;50211;52.768;12.124;2023-03-23T00:17:31;11.50;99.90
64012;DHT22;50211;52.768;12.124;2023-03-23T00:20:00;11.40;99.90
64012;DHT22;50211;52.768;12.124;2023-03-23T00:22:28;11.40;99.90
64012;DHT22;50211;52.768;12.124;2023-03-23T00:24:54;11.40;99.90
64012;DHT22;50211;52.768;12.124;2023-03-23T00:27:21;11.40;99.90
64012;DHT22;50211;52.768;12.124;2023-03-23T00:29:50;11.40;99.90
64012;DHT22;50211;52.768;12.124;2023-03-23T00:32:22;11.50;99.90
64012;DHT22;50211;52.768;12.124;2023-03-23T00:34:54;11.50;99.90
64012;DHT22;50211;52.768;12.124;2023-03-23T00:37:20;11.50;99.90
64012;DHT22;50211;52.768;12.124;2023-03-23T00:39:46;11.50;99.90
64012;DHT22;50211;52.768;12.124;2023-03-23T00:42:14;11.50;99.90
64012;DHT22;50211;52.768;12.124;2023-03-23T00:44:39;11.40;99.90
64012;DHT22;50211;52.768;12.124;2023-03-23T00:47:05;11.50;99.90
64012;DHT22;50211;52.768;12.124;2023-03-23T00:49:33;11.50;99.90
64012;DHT22;50211;52.768;12.124;2023-03-23T00:52:01;11.60;99.90
64012;DHT22;50211;52.768;12.124;2023-03-23T00:54:27;11.60;99.90
64012;DHT22;50211;52.768;12.124;2023-03-23T00:56:53;11.60;99.90
64012;DHT22;50211;52.768;12.124;2023-03-23T00:59:19;11.70;99.90
64012;DHT22;50211;52.768;12.124;2023-03-23T01:01:46;11.70;99.90
64012;DHT22;50211;52.768;12.124;2023-03-23T01:04:12;11.70;99.90
64012;DHT22;50211;52.768;12.124;2023-03-23T01:06:40;11.70;99.90
64012;DHT22;50211;52.768;12.124;2023-03-23T01:09:07;11.70;99.90
64012;DHT22;50211;52.768;12.124;2023-03-23T01:11:33;11.80;99.90
64012;DHT22;50211;52.768;12.124;2023-03-23T01:13:59;11.70;99.90
64012;DHT22;50211;52.768;12.124;2023-03-23T01:16:25;11.80;99.90
64012;DHT22;50211;52.768;12.124;2023-03-23T01:18:51;11.70;99.90
64012;DHT22;50211;52.768;12.124;2023-03-23T01:21:18;11.80;99.90
64012;DHT22;50211;52.768;12.124;2023-03-23T01:23:44;11.80;99.90
64012;DHT22;50211;52.768;12.124;2023-03-23T01:26:12;11.80;99.90
64012;DHT22;50211;52.768;12.124;2023-03-23T01:28:39;11.80;99.90
64012;DHT22;50211;52.768;12.124;2023-03-23T01:31:08;11.80;99.90
64012;DHT22;50211;52.768;12.124;2023-03-23T01:33:34;11.70;99.90
64012;DHT22;50211;52.768;12.124;2023-03-23T01:36:05;11.70;99.90
64012;DHT22;50211;52.768;12.124;2023-03-23T01:38:32;11.60;99.90
64012;DHT22;50211;52.768;12.124;2023-03-23T01:40:58;11.60;99.90
64012;DHT22;50211;52.768;12.124;2023-03-23T01:43:23;11.50;99.90
64012;DHT22;50211;52.768;12.124;2023-03-23T01:45:49;11.40;99.90
64012;DHT22;50211;52.768;12.124;2023-03-23T01:48:25;11.50;99.90
64012;DHT22;50211;52.768;12.124;2023-03-23T01:51:12;11.50;99.90
64012;DHT22;50211;52.768;12.124;2023-03-23T01:53:42;11.40;99.90
64012;DHT22;50211;52.768;12.124;2023-03-23T01:56:09;11.40;99.90
64012;DHT22;50211;52.768;12.124;2023-03-23T01:58:38;11.40;99.90
64012;DHT22;50211;52.768;12.124;2023-03-23T02:01:06;11.30;99.90
64012;DHT22;50211;52.768;12.124;2023-03-23T02:03:35;11.30;99.90
64012;DHT22;50211;52.768;12.124;2023-03-23T02:06:02;11.20;99.90
64012;DHT22;50211;52.768;12.124;2023-03-23T02:08:29;11.20;99.90
64012;DHT22;50211;52.768;12.124;2023-03-23T02:10:55;11.10;99.90
64012;DHT22;50211;52.768;12.124;2023-03-23T02:13:21;11.00;99.90
64012;DHT22;50211;52.768;12.124;2023-03-23T02:16:10;10.90;99.90
64012;DHT22;50211;52.768;12.124;2023-03-23T02:18:47;10.80;99.90
64012;DHT22;50211;52.768;12.124;2023-03-23T02:27:02;10.60;99.90
64012;DHT22;50211;52.768;12.124;2023-03-23T02:29:50;10.50;99.90
64012;DHT22;50211;52.768;12.124;2023-03-23T02:32:38;10.40;99.90
64012;DHT22;50211;52.768;12.124;2023-03-23T02:35:14;10.40;99.90
64012;DHT22;50211;52.768;12.124;2023-03-23T02:37:50;10.30;99.90
64012;DHT22;50211;52.768;12.124;2023-03-23T02:40:21;10.30;99.90
64012;DHT22;50211;52.768;12.124;2023-03-23T02:42:53;10.30;99.90
64012;DHT22;50211;52.768;12.124;2023-03-23T02:45:21;10.20;99.90
64012;DHT22;50211;52.768;12.124;2023-03-23T02:47:49;10.20;99.90
64012;DHT22;50211;52.768;12.124;2023-03-23T02:50:18;10.20;99.90
64012;DHT22;50211;52.768;12.124;2023-03-23T02:52:46;10.20;99.90
64012;DHT22;50211;52.768;12.124;2023-03-23T02:55:13;10.20;99.90
64012;DHT22;50211;52.768;12.124;2023-03-23T02:57:39;10.20;99.90
64012;DHT22;50211;52.768;12.124;2023-03-23T03:00:06;10.20;99.90
64012;DHT22;50211;52.768;12.124;2023-03-23T03:02:38;10.10;99.90
64012;DHT22;50211;52.768;12.124;2023-03-23T03:05:42;10.10;99.90
64012;DHT22;50211;52.768;12.124;2023-03-23T03:11:12;10.00;99.90
64012;DHT22;50211;52.768;12.124;2023-03-23T03:14:05;10.00;99.90
64012;DHT22;50211;52.768;12.124;2023-03-23T03:16:33;10.00;99.90
64012;DHT22;50211;52.768;12.124;2023-03-23T03:19:05;10.00;99.90
64012;DHT22;50211;52.768;12.124;2023-03-23T03:21:38;9.90;99.90
64012;DHT22;50211;52.768;12.124;2023-03-23T03:24:07;9.90;99.90
64012;DHT22;50211;52.768;12.124;2023-03-23T03:26:40;9.90;99.90
64012;DHT22;50211;52.768;12.124;2023-03-23T03:29:14;9.90;99.90
64012;DHT22;50211;52.768;12.124;2023-03-23T03:31:43;9.90;99.90
64012;DHT22;50211;52.768;12.124;2023-03-23T03:34:14;9.90;99.90
64012;DHT22;50211;52.768;12.124;2023-03-23T03:36:47;9.90;99.90
64012;DHT22;50211;52.768;12.124;2023-03-23T03:39:14;9.90;99.90
64012;DHT22;50211;52.768;12.124;2023-03-23T03:41:41;9.90;99.90
64012;DHT22;50211;52.768;12.124;2023-03-23T03:44:07;10.00;99.90
64012;DHT22;50211;52.768;12.124;2023-03-23T03:46:33;10.00;99.90
64012;DHT22;50211;52.768;12.124;2023-03-23T03:49:00;10.10;99.90
64012;DHT22;50211;52.768;12.124;2023-03-23T03:51:28;10.00;99.90
64012;DHT22;50211;52.768;12.124;2023-03-23T03:53:54;10.00;99.90
64012;DHT22;50211;52.768;12.124;2023-03-23T03:56:20;10.00;99.90
64012;DHT22;50211;52.768;12.124;2023-03-23T03:58:47;10.00;99.90
64012;DHT22;50211;52.768;12.124;2023-03-23T04:01:14;9.90;99.90
64012;DHT22;50211;52.768;12.124;2023-03-23T04:03:41;10.00;99.90
64012;DHT22;50211;52.768;12.124;2023-03-23T04:06:08;10.00;99.90
64012;DHT22;50211;52.768;12.124;2023-03-23T04:08:34;10.00;99.90
64012;DHT22;50211;52.768;12.124;2023-03-23T04:11:01;10.00;99.90
64012;DHT22;50211;52.768;12.124;2023-03-23T04:13:26;10.00;99.90
64012;DHT22;50211;52.768;12.124;2023-03-23T04:15:52;10.00;99.90
64012;DHT22;50211;52.768;12.124;2023-03-23T04:18:18;10.00;99.90
64012;DHT22;50211;52.768;12.124;2023-03-23T04:20:45;10.00;99.90
64012;DHT22;50211;52.768;12.124;2023-03-23T04:23:13;9.90;99.90
64012;DHT22;50211;52.768;12.124;2023-03-23T04:25:38;9.90;99.90
64012;DHT22;50211;52.768;12.124;2023-03-23T04:28:06;9.80;99.90
64012;DHT22;50211;52.768;12.124;2023-03-23T04:30:32;9.90;99.90
64012;DHT22;50211;52.768;12.124;2023-03-23T04:32:58;9.90;99.90
64012;DHT22;50211;52.768;12.124;2023-03-23T04:35:26;9.90;99.90
64012;DHT22;50211;52.768;12.124;2023-03-23T04:37:52;9.80;99.90
64012;DHT22;50211;52.768;12.124;2023-03-23T04:40:18;9.80;99.90
64012;DHT22;50211;52.768;12.124;2023-03-23T04:42:45;9.80;99.90
64012;DHT22;50211;52.768;12.124;2023-03-23T04:45:12;9.80;99.90
64012;DHT22;50211;52.768;12.124;2023-03-23T04:47:40;9.90;99.90
64012;DHT22;50211;52.768;12.124;2023-03-23T04:50:08;9.80;99.90
64012;DHT22;50211;52.768;12.124;2023-03-23T04:52:35;9.90;99.90
64012;DHT22;50211;52.768;12.124;2023-03-23T04:55:07;9.80;99.90
64012;DHT22;50211;52.768;12.124;2023-03-23T04:57:33;9.80;99.90
64012;DHT22;50211;52.768;12.124;2023-03-23T05:00:01;9.80;99.90
64012;DHT22;50211;52.768;12.124;2023-03-23T05:02:29;9.70;99.90
64012;DHT22;50211;52.768;12.124;2023-03-23T05:04:56;9.70;99.90
64012;DHT22;50211;52.768;12.124;2023-03-23T05:07:22;9.70;99.90
64012;DHT22;50211;52.768;12.124;2023-03-23T05:09:48;9.70;99.90
64012;DHT22;50211;52.768;12.124;2023-03-23T05:12:14;9.80;99.90
64012;DHT22;50211;52.768;12.124;2023-03-23T05:14:41;9.80;99.90
64012;DHT22;50211;52.768;12.124;2023-03-23T05:17:07;9.80;99.90
64012;DHT22;50211;52.768;12.124;2023-03-23T05:19:33;9.80;99.90
64012;DHT22;50211;52.768;12.124;2023-03-23T05:21:59;9.80;99.90
64012;DHT22;50211;52.768;12.124;2023-03-23T05:24:31;9.80;99.90
64012;DHT22;50211;52.768;12.124;2023-03-23T05:27:00;9.80;99.90
64012;DHT22;50211;52.768;12.124;2023-03-23T05:29:27;9.80;99.90
64012;DHT22;50211;52.768;12.124;2023-03-23T05:31:58;9.80;99.90
64012;DHT22;50211;52.768;12.124;2023-03-23T05:34:25;9.80;99.90
64012;DHT22;50211;52.768;12.124;2023-03-23T05:36:52;9.80;99.90
64012;DHT22;50211;52.768;12.124;2023-03-23T05:39:18;9.80;99.90
64012;DHT22;50211;52.768;12.124;2023-03-23T05:41:44;9.80;99.90
64012;DHT22;50211;52.768;12.124;2023-03-23T05:44:09;9.80;99.90
64012;DHT22;50211;52.768;12.124;2023-03-23T05:46:35;9.80;99.90
64012;DHT22;50211;52.768;12.124;2023-03-23T05:49:00;9.80;99.90
64012;DHT22;50211;52.768;12.124;2023-03-23T05:51:27;9.80;99.90
64012;DHT22;50211;52.768;12.124;2023-03-23T05:53:52;9.80;99.90
64012;DHT22;50211;52.768;12.124;2023-03-23T05:56:18;9.80;99.90
64012;DHT22;50211;52.768;12.124;2023-03-23T05:58:44;9.80;99.90
64012;DHT22;50211;52.768;12.124;2023-03-23T06:01:10;9.80;99.90
64012;DHT22;50211;52.768;12.124;2023-03-23T06:03:37;9.80;99.90
64012;DHT22;50211;52.768;12.124;2023-03-23T06:06:03;9.80;99.90
64012;DHT22;50211;52.768;12.124;2023-03-23T06:08:30;9.80;99.90
64012;DHT22;50211;52.768;12.124;2023-03-23T06:10:55;9.80;99.90
64012;DHT22;50211;52.768;12.124;2023-03-23T06:13:22;9.90;99.90
64012;DHT22;50211;52.768;12.124;2023-03-23T06:15:48;9.90;99.90
64012;DHT22;50211;52.768;12.124;2023-03-23T06:18:14;9.90;99.90
64012;DHT22;50211;52.768;12.124;2023-03-23T06:20:40;9.90;99.90
64012;DHT22;50211;52.768;12.124;2023-03-23T06:23:06;10.00;99.90
64012;DHT22;50211;52.768;12.124;2023-03-23T06:25:32;9.90;99.90
64012;DHT22;50211;52.768;12.124;2023-03-23T06:27:57;10.00;99.90
64012;DHT22;50211;52.768;12.124;2023-03-23T06:30:23;10.00;99.90
64012;DHT22;50211;52.768;12.124;2023-03-23T06:32:49;10.10;99.90
64012;DHT22;50211;52.768;12.124;2023-03-23T06:35:15;10.10;99.90
64012;DHT22;50211;52.768;12.124;2023-03-23T06:37:41;10.10;99.90
64012;DHT22;50211;52.768;12.124;2023-03-23T06:40:07;10.10;99.90
64012;DHT22;50211;52.768;12.124;2023-03-23T06:42:34;10.10;99.90
64012;DHT22;50211;52.768;12.124;2023-03-23T06:45:00;10.10;99.90
64012;DHT22;50211;52.768;12.124;2023-03-23T06:47:27;10.20;99.90
64012;DHT22;50211;52.768;12.124;2023-03-23T06:49:57;10.20;99.90
64012;DHT22;50211;52.768;12.124;2023-03-23T06:52:23;10.20;99.90
64012;DHT22;50211;52.768;12.124;2023-03-23T06:54:50;10.20;99.90
64012;DHT22;50211;52.768;12.124;2023-03-23T06:57:16;10.30;99.90
64012;DHT22;50211;52.768;12.124;2023-03-23T06:59:42;10.30;99.90
64012;DHT22;50211;52.768;12.124;2023-03-23T07:02:10;10.40;99.90
64012;DHT22;50211;52.768;12.124;2023-03-23T07:04:37;10.40;99.90
64012;DHT22;50211;52.768;12.124;2023-03-23T07:07:03;10.50;99.90
64012;DHT22;50211;52.768;12.124;2023-03-23T07:09:28;10.50;99.90
64012;DHT22;50211;52.768;12.124;2023-03-23T07:11:54;10.50;99.90
64012;DHT22;50211;52.768;12.124;2023-03-23T07:14:19;10.50;99.90
64012;DHT22;50211;52.768;12.124;2023-03-23T07:16:47;10.50;99.90
64012;DHT22;50211;52.768;12.124;2023-03-23T07:19:12;10.50;99.90
64012;DHT22;50211;52.768;12.124;2023-03-23T07:21:38;10.50;99.90
64012;DHT22;50211;52.768;12.124;2023-03-23T07:24:03;10.50;99.90
64012;DHT22;50211;52.768;12.124;2023-03-23T07:26:29;10.50;99.90
64012;DHT22;50211;52.768;12.124;2023-03-23T07:28:54;10.50;99.90
64012;DHT22;50211;52.768;12.124;2023-03-23T07:31:20;10.60;99.90
64012;DHT22;50211;52.768;12.124;2023-03-23T07:33:46;10.60;99.90
64012;DHT22;50211;52.768;12.124;2023-03-23T07:36:12;10.60;99.90
64012;DHT22;50211;52.768;12.124;2023-03-23T07:38:38;10.60;99.90
64012;DHT22;50211;52.768;12.124;2023-03-23T07:41:04;10.60;99.90
64012;DHT22;50211;52.768;12.124;2023-03-23T07:43:30;10.60;99.90
64012;DHT22;50211;52.768;12.124;2023-03-23T07:45:55;10.60;99.90
64012;DHT22;50211;52.768;12.124;2023-03-23T07:48:21;10.60;99.90
64012;DHT22;50211;52.768;12.124;2023-03-23T07:50:47;10.70;99.90
64012;DHT22;50211;52.768;12.124;2023-03-23T07:53:13;10.70;99.90
64012;DHT22;50211;52.768;12.124;2023-03-23T07:55:38;10.70;99.90
64012;DHT22;50211;52.768;12.124;2023-03-23T07:58:04;10.70;99.90
64012;DHT22;50211;52.768;12.124;2023-03-23T08:00:30;10.80;99.90
64012;DHT22;50211;52.768;12.124;2023-03-23T08:02:56;10.80;99.90
64012;DHT22;50211;52.768;12.124;2023-03-23T08:05:23;10.90;99.90
64012;DHT22;50211;52.768;12.124;2023-03-23T08:07:52;10.90;99.90
64012;DHT22;50211;52.768;12.124;2023-03-23T08:10:19;10.90;99.90
64012;DHT22;50211;52.768;12.124;2023-03-23T08:12:50;11.00;99.90
64012;DHT22;50211;52.768;12.124;2023-03-23T08:15:16;11.10;99.90
64012;DHT22;50211;52.768;12.124;2023-03-23T08:17:42;11.10;99.90
64012;DHT22;50211;52.768;12.124;2023-03-23T08:20:09;11.20;99.90
64012;DHT22;50211;52.768;12.124;2023-03-23T08:22:40;11.30;99.90
64012;DHT22;50211;52.768;12.124;2023-03-23T08:25:07;11.50;99.90
64012;DHT22;50211;52.768;12.124;2023-03-23T08:27:34;11.50;99.90
64012;DHT22;50211;52.768;12.124;2023-03-23T08:30:00;11.50;99.90
64012;DHT22;50211;52.768;12.124;2023-03-23T08:32:25;11.60;99.90
64012;DHT22;50211;52.768;12.124;2023-03-23T08:34:51;11.60;99.90
64012;DHT22;50211;52.768;12.124;2023-03-23T08:37:17;11.60;99.90
64012;DHT22;50211;52.768;12.124;2023-03-23T08:39:43;11.70;99.90
64012;DHT22;50211;52.768;12.124;2023-03-23T08:42:09;11.70;99.90
64012;DHT22;50211;52.768;12.124;2023-03-23T08:44:35;11.80;99.90
64012;DHT22;50211;52.768;12.124;2023-03-23T08:47:02;11.90;99.90
64012;DHT22;50211;52.768;12.124;2023-03-23T08:49:29;12.10;99.90
64012;DHT22;50211;52.768;12.124;2023-03-23T08:51:56;12.20;99.90
64012;DHT22;50211;52.768;12.124;2023-03-23T08:54:21;12.30;99.90
64012;DHT22;50211;52.768;12.124;2023-03-23T08:56:47;12.30;99.90
64012;DHT22;50211;52.768;12.124;2023-03-23T08:59:12;12.30;99.90
64012;DHT22;50211;52.768;12.124;2023-03-23T09:01:38;12.30;99.90
64012;DHT22;50211;52.768;12.124;2023-03-23T09:04:04;12.30;99.90
64012;DHT22;50211;52.768;12.124;2023-03-23T09:06:29;12.50;99.90
64012;DHT22;50211;52.768;12.124;2023-03-23T09:08:55;12.70;99.90
64012;DHT22;50211;52.768;12.124;2023-03-23T09:11:21;12.90;99.90
64012;DHT22;50211;52.768;12.124;2023-03-23T09:13:47;13.00;99.90
64012;DHT22;50211;52.768;12.124;2023-03-23T09:16:13;13.10;99.90
64012;DHT22;50211;52.768;12.124;2023-03-23T09:18:38;13.10;99.90
64012;DHT22;50211;52.768;12.124;2023-03-23T09:21:04;13.20;99.90
64012;DHT22;50211;52.768;12.124;2023-03-23T09:23:31;13.30;99.90
64012;DHT22;50211;52.768;12.124;2023-03-23T09:25:56;13.40;99.90
64012;DHT22;50211;52.768;12.124;2023-03-23T09:28:22;13.40;99.90
64012;DHT22;50211;52.768;12.124;2023-03-23T09:30:48;13.40;99.90
64012;DHT22;50211;52.768;12.124;2023-03-23T09:33:14;13.40;99.90
64012;DHT22;50211;52.768;12.124;2023-03-23T09:35:40;13.40;99.90
64012;DHT22;50211;52.768;12.124;2023-03-23T09:38:08;13.30;99.90
64012;DHT22;50211;52.768;12.124;2023-03-23T09:40:46;13.30;99.90
64012;DHT22;50211;52.768;12.124;2023-03-23T09:48:55;13.50;99.90
64012;DHT22;50211;52.768;12.124;2023-03-23T09:51:28;13.50;99.90
64012;DHT22;50211;52.768;12.124;2023-03-23T09:53:58;13.50;99.90
64012;DHT22;50211;52.768;12.124;2023-03-23T09:56:29;13.40;99.90
64012;DHT22;50211;52.768;12.124;2023-03-23T10:01:37;13.60;99.90
64012;DHT22;50211;52.768;12.124;2023-03-23T10:06:47;13.50;99.90
64012;DHT22;50211;52.768;12.124;2023-03-23T10:09:16;13.60;99.90
64012;DHT22;50211;52.768;12.124;2023-03-23T10:11:57;13.60;99.90
64012;DHT22;50211;52.768;12.124;2023-03-23T10:14:45;13.60;99.90
64012;DHT22;50211;52.768;12.124;2023-03-23T10:19:52;13.60;99.90
64012;DHT22;50211;52.768;12.124;2023-03-23T10:22:32;13.60;99.90
64012;DHT22;50211;52.768;12.124;2023-03-23T10:25:15;13.60;99.90
64012;DHT22;50211;52.768;12.124;2023-03-23T10:30:33;13.50;99.90
64012;DHT22;50211;52.768;12.124;2023-03-23T10:35:42;13.40;99.90
64012;DHT22;50211;52.768;12.124;2023-03-23T10:38:24;13.40;99.90
64012;DHT22;50211;52.768;12.124;2023-03-23T10:41:01;13.40;99.90
64012;DHT22;50211;52.768;12.124;2023-03-23T10:43:28;13.30;99.90
64012;DHT22;50211;52.768;12.124;2023-03-23T10:46:04;13.40;99.90
64012;DHT22;50211;52.768;12.124;2023-03-23T10:48:35;13.40;99.90
64012;DHT22;50211;52.768;12.124;2023-03-23T10:51:04;13.50;99.90
64012;DHT22;50211;52.768;12.124;2023-03-23T10:53:50;13.60;99.90
64012;DHT22;50211;52.768;12.124;2023-03-23T10:56:43;13.70;99.90
64012;DHT22;50211;52.768;12.124;2023-03-23T10:59:18;13.70;99.90
64012;DHT22;50211;52.768;12.124;2023-03-23T11:01:55;13.80;99.90
64012;DHT22;50211;52.768;12.124;2023-03-23T11:04:22;13.90;99.90
64012;DHT22;50211;52.768;12.124;2023-03-23T11:06:51;13.90;99.90
64012;DHT22;50211;52.768;12.124;2023-03-23T11:09:19;14.00;99.90
64012;DHT22;50211;52.768;12.124;2023-03-23T11:11:54;14.00;99.90
64012;DHT22;50211;52.768;12.124;2023-03-23T11:14:30;14.00;99.90
64012;DHT22;50211;52.768;12.124;2023-03-23T11:17:02;14.10;99.90
64012;DHT22;50211;52.768;12.124;2023-03-23T11:19:32;14.10;99.90
64012;DHT22;50211;52.768;12.124;2023-03-23T11:24:52;14.20;99.90
64012;DHT22;50211;52.768;12.124;2023-03-23T11:27:18;14.20;99.90
64012;DHT22;50211;52.768;12.124;2023-03-23T11:29:54;14.20;99.90
64012;DHT22;50211;52.768;12.124;2023-03-23T11:32:24;14.30;99.90
64012;DHT22;50211;52.768;12.124;2023-03-23T11:34:54;14.30;99.90
64012;DHT22;50211;52.768;12.124;2023-03-23T11:37:35;14.30;99.90
64012;DHT22;50211;52.768;12.124;2023-03-23T11:42:45;14.30;99.90
64012;DHT22;50211;52.768;12.124;2023-03-23T11:45:21;14.20;99.90
64012;DHT22;50211;52.768;12.124;2023-03-23T11:53:59;14.10;99.90
64012;DHT22;50211;52.768;12.124;2023-03-23T11:56:35;14.10;99.90
64012;DHT22;50211;52.768;12.124;2023-03-23T11:59:02;14.10;99.90
64012;DHT22;50211;52.768;12.124;2023-03-23T12:04:40;14.10;99.90
64012;DHT22;50211;52.768;12.124;2023-03-23T12:07:46;14.10;99.90
64012;DHT22;50211;52.768;12.124;2023-03-23T12:10:20;14.20;99.90
64012;DHT22;50211;52.768;12.124;2023-03-23T12:15:43;14.20;99.90
64012;DHT22;50211;52.768;12.124;2023-03-23T12:21:06;14.30;99.90
64012;DHT22;50211;52.768;12.124;2023-03-23T12:26:48;15.00;99.90
64012;DHT22;50211;52.768;12.124;2023-03-23T12:32:29;16.10;99.90
64012;DHT22;50211;52.768;12.124;2023-03-23T12:35:14;16.10;99.90
64012;DHT22;50211;52.768;12.124;2023-03-23T12:49:09;17.70;99.90
64012;DHT22;50211;52.768;12.124;2023-03-23T12:54:24;16.90;99.90
64012;DHT22;50211;52.768;12.124;2023-03-23T12:57:08;16.40;99.90
64012;DHT22;50211;52.768;12.124;2023-03-23T12:59:52;16.40;99.90
64012;DHT22;50211;52.768;12.124;2023-03-23T13:02:37;16.60;99.90
64012;DHT22;50211;52.768;12.124;2023-03-23T13:05:08;16.60;99.90
64012;DHT22;50211;52.768;12.124;2023-03-23T13:07:42;16.90;99.90
64012;DHT22;50211;52.768;12.124;2023-03-23T13:12:34;17.00;99.90
64012;DHT22;50211;52.768;12.124;2023-03-23T13:15:44;16.40;99.90
64012;DHT22;50211;52.768;12.124;2023-03-23T13:21:02;15.70;99.90
64012;DHT22;50211;52.768;12.124;2023-03-23T13:23:37;15.50;99.90
64012;DHT22;50211;52.768;12.124;2023-03-23T13:26:08;15.00;99.90
64012;DHT22;50211;52.768;12.124;2023-03-23T13:31:28;14.50;99.90
64012;DHT22;50211;52.768;12.124;2023-03-23T13:34:05;14.40;99.90
64012;DHT22;50211;52.768;12.124;2023-03-23T13:36:40;14.30;99.90
64012;DHT22;50211;52.768;12.124;2023-03-23T13:39:19;14.10;99.90
64012;DHT22;50211;52.768;12.124;2023-03-23T13:42:02;14.30;99.90
64012;DHT22;50211;52.768;12.124;2023-03-23T13:47:27;16.00;99.90
64012;DHT22;50211;52.768;12.124;2023-03-23T14:10:44;13.70;99.90
64012;DHT22;50211;52.768;12.124;2023-03-23T14:13:21;13.80;99.90
64012;DHT22;50211;52.768;12.124;2023-03-23T14:18:30;13.60;99.90
64012;DHT22;50211;52.768;12.124;2023-03-23T14:20:57;13.50;99.90
64012;DHT22;50211;52.768;12.124;2023-03-23T14:23:23;13.40;99.90
64012;DHT22;50211;52.768;12.124;2023-03-23T14:25:58;13.40;99.90
64012;DHT22;50211;52.768;12.124;2023-03-23T14:28:30;13.30;99.90
64012;DHT22;50211;52.768;12.124;2023-03-23T14:30:58;13.30;99.90
64012;DHT22;50211;52.768;12.124;2023-03-23T14:33:25;13.30;99.90
64012;DHT22;50211;52.768;12.124;2023-03-23T14:35:51;13.00;99.90
64012;DHT22;50211;52.768;12.124;2023-03-23T14:38:22;12.90;99.90
64012;DHT22;50211;52.768;12.124;2023-03-23T14:40:50;12.50;99.90
64012;DHT22;50211;52.768;12.124;2023-03-23T14:43:18;12.20;99.90
64012;DHT22;50211;52.768;12.124;2023-03-23T14:45:49;11.90;99.90
64012;DHT22;50211;52.768;12.124;2023-03-23T14:48:16;11.70;99.90
64012;DHT22;50211;52.768;12.124;2023-03-23T14:50:59;11.60;99.90
64012;DHT22;50211;52.768;12.124;2023-03-23T14:53:39;11.60;99.90
64012;DHT22;50211;52.768;12.124;2023-03-23T14:56:14;11.40;99.90
64012;DHT22;50211;52.768;12.124;2023-03-23T14:58:44;11.40;99.90
64012;DHT22;50211;52.768;12.124;2023-03-23T15:01:13;11.30;99.90
64012;DHT22;50211;52.768;12.124;2023-03-23T15:03:55;11.40;99.90
64012;DHT22;50211;52.768;12.124;2023-03-23T15:06:22;11.40;99.90
64012;DHT22;50211;52.768;12.124;2023-03-23T15:08:53;11.50;99.90
64012;DHT22;50211;52.768;12.124;2023-03-23T15:11:27;11.80;99.90
64012;DHT22;50211;52.768;12.124;2023-03-23T15:13:56;12.10;99.90
64012;DHT22;50211;52.768;12.124;2023-03-23T15:16:32;12.40;99.90
64012;DHT22;50211;52.768;12.124;2023-03-23T15:19:04;12.50;99.90
64012;DHT22;50211;52.768;12.124;2023-03-23T15:21:36;12.60;99.90
64012;DHT22;50211;52.768;12.124;2023-03-23T15:24:37;12.60;99.90
64012;DHT22;50211;52.768;12.124;2023-03-23T15:29:31;12.40;99.90
64012;DHT22;50211;52.768;12.124;2023-03-23T15:31:57;12.30;99.90
64012;DHT22;50211;52.768;12.124;2023-03-23T15:34:33;12.30;99.90
64012;DHT22;50211;52.768;12.124;2023-03-23T15:37:02;12.30;99.90
64012;DHT22;50211;52.768;12.124;2023-03-23T15:39:28;12.20;99.90
64012;DHT22;50211;52.768;12.124;2023-03-23T15:41:56;12.20;99.90
64012;DHT22;50211;52.768;12.124;2023-03-23T15:47:01;12.80;99.90
64012;DHT22;50211;52.768;12.124;2023-03-23T15:49:28;12.90;99.90
64012;DHT22;50211;52.768;12.124;2023-03-23T15:51:54;12.80;99.90
64012;DHT22;50211;52.768;12.124;2023-03-23T15:54:19;12.60;99.90
64012;DHT22;50211;52.768;12.124;2023-03-23T15:56:45;12.60;99.90
64012;DHT22;50211;52.768;12.124;2023-03-23T15:59:11;12.40;99.90
64012;DHT22;50211;52.768;12.124;2023-03-23T16:01:39;12.30;99.90
64012;DHT22;50211;52.768;12.124;2023-03-23T16:04:08;12.20;99.90
64012;DHT22;50211;52.768;12.124;2023-03-23T16:06:35;12.10;99.90
64012;DHT22;50211;52.768;12.124;2023-03-23T16:09:02;12.00;99.90
64012;DHT22;50211;52.768;12.124;2023-03-23T16:11:29;12.00;99.90
64012;DHT22;50211;52.768;12.124;2023-03-23T16:13:56;11.90;99.90
64012;DHT22;50211;52.768;12.124;2023-03-23T16:16:28;11.90;99.90
64012;DHT22;50211;52.768;12.124;2023-03-23T16:18:54;11.90;99.90
64012;DHT22;50211;52.768;12.124;2023-03-23T16:21:19;11.80;99.90
64012;DHT22;50211;52.768;12.124;2023-03-23T16:23:45;11.70;99.90
64012;DHT22;50211;52.768;12.124;2023-03-23T16:26:12;11.70;99.90
64012;DHT22;50211;52.768;12.124;2023-03-23T16:28:38;11.60;99.90
64012;DHT22;50211;52.768;12.124;2023-03-23T16:31:05;11.60;99.90
64012;DHT22;50211;52.768;12.124;2023-03-23T16:33:30;11.60;99.90
64012;DHT22;50211;52.768;12.124;2023-03-23T16:35:56;11.60;99.90
64012;DHT22;50211;52.768;12.124;2023-03-23T16:38:23;11.50;99.90
64012;DHT22;50211;52.768;12.124;2023-03-23T16:40:49;11.50;99.90
64012;DHT22;50211;52.768;12.124;2023-03-23T16:43:14;11.50;99.90
64012;DHT22;50211;52.768;12.124;2023-03-23T16:45:42;11.50;99.90
64012;DHT22;50211;52.768;12.124;2023-03-23T16:48:08;11.50;99.90
64012;DHT22;50211;52.768;12.124;2023-03-23T16:50:35;11.50;99.90
64012;DHT22;50211;52.768;12.124;2023-03-23T16:53:01;11.50;99.90
64012;DHT22;50211;52.768;12.124;2023-03-23T16:55:27;11.50;99.90
64012;DHT22;50211;52.768;12.124;2023-03-23T16:57:53;11.50;99.90
64012;DHT22;50211;52.768;12.124;2023-03-23T17:00:20;11.50;99.90
64012;DHT22;50211;52.768;12.124;2023-03-23T17:02:48;11.50;99.90
64012;DHT22;50211;52.768;12.124;2023-03-23T17:05:17;11.50;99.90
64012;DHT22;50211;52.768;12.124;2023-03-23T17:07:44;11.50;99.90
64012;DHT22;50211;52.768;12.124;2023-03-23T17:10:10;11.50;99.90
64012;DHT22;50211;52.768;12.124;2023-03-23T17:12:36;11.40;99.90
64012;DHT22;50211;52.768;12.124;2023-03-23T17:15:02;11.30;99.90
64012;DHT22;50211;52.768;12.124;2023-03-23T17:17:28;11.30;99.90
64012;DHT22;50211;52.768;12.124;2023-03-23T17:19:53;11.30;99.90